^^
Saratoga-Weather Station Historical Data
Daily Summary for June 2, 2020 Units:  English    Metric   Both
Daily Weekly Monthly Yearly Custom
  High: Low: Average:
Temperature: 57.4 °F 42.4 °F 49.5 °F
Dew Point: 45.5 °F 39.6 °F 42.6 °F
Humidity: 92% 54% 79%
Wind Speed: 19mph 0mph 3.7mph
Wind Gust: 19mph - -
Wind- - West
Pressure: 30 in 29.7 in -
Precipitation: 0.01 in    
Historical Graphs
 
 
Tabular Data for June 2, 2020
Time Temperature Dew Point Pressure Wind Wind Speed Wind Gust Humidity Rainfall Rate (Hourly) solar
00:00 47.1 °F 44.6 °F 29.7 in West 0.9 mph 4 mph 91% 0 in 0 W/m2
00:05 47.1 °F 44.6 °F 29.7 in NW 4 mph 4 mph 91% 0 in 0 W/m2
00:10 47.1 °F 44.6 °F 29.7 in SSW 2.9 mph 6 mph 91% 0 in 0 W/m2
00:15 47.5 °F 45 °F 29.7 in WSW 6 mph 8 mph 91% 0 in 0 W/m2
00:20 47.7 °F 45 °F 29.7 in WSW 4.9 mph 10 mph 90% 0 in 0 W/m2
00:25 47.8 °F 45 °F 29.7 in West 4 mph 4 mph 90% 0 in 0 W/m2
00:30 47.7 °F 45 °F 29.7 in West 4 mph 10 mph 90% 0 in 0 W/m2
00:36 47.5 °F 44.8 °F 29.7 in West 4 mph 4 mph 90% 0 in 0 W/m2
00:41 47.3 °F 44.6 °F 29.7 in West 2.9 mph 9 mph 90% 0 in 0 W/m2
00:46 47.1 °F 44.4 °F 29.7 in WSW 4.9 mph 5 mph 90% 0 in 0 W/m2
00:51 47.1 °F 44.4 °F 29.7 in WSW 2 mph 8 mph 90% 0 in 0 W/m2
00:56 46.9 °F 44.2 °F 29.7 in WNW 2 mph 4 mph 90% 0 in 0 W/m2
01:01 46.9 °F 44.2 °F 29.7 in WNW 2.9 mph 4 mph 90% 0 in 0 W/m2
01:06 46.8 °F 44.1 °F 29.7 in WNW 2.9 mph 7 mph 90% 0 in 0 W/m2
01:11 46.8 °F 44.1 °F 29.7 in WNW 2 mph 10 mph 90% 0 in 0 W/m2
01:16 46.6 °F 43.9 °F 29.7 in West 2 mph 2 mph 90% 0 in 0 W/m2
01:21 46.2 °F 43.5 °F 29.7 in WNW 0.9 mph 10 mph 90% 0 in 0 W/m2
01:26 46 °F 43.5 °F 29.7 in WSW 0.9 mph 4 mph 91% 0 in 0 W/m2
01:31 46 °F 43.5 °F 29.7 in WSW 2 mph 6 mph 91% 0 in 0 W/m2
01:36 45.9 °F 43.3 °F 29.7 in WSW 2 mph 2 mph 91% 0 in 0 W/m2
01:41 45.7 °F 43.2 °F 29.7 in WSW 6 mph 6 mph 91% 0 in 0 W/m2
01:46 45.7 °F 43.5 °F 29.7 in West 0.9 mph 4 mph 92% 0 in 0 W/m2
01:51 45.5 °F 43.3 °F 29.7 in WSW 2.9 mph 7 mph 92% 0 in 0 W/m2
01:56 45.5 °F 43.3 °F 29.7 in WSW 2 mph 8 mph 92% 0 in 0 W/m2
02:01 45.7 °F 43.5 °F 29.7 in WSW 4 mph 4 mph 92% 0 in 0 W/m2
02:06 45.7 °F 43.5 °F 29.7 in SW 2.9 mph 7 mph 92% 0 in 0 W/m2
02:11 45.5 °F 43.3 °F 29.7 in WNW 0.9 mph 9 mph 92% 0 in 0 W/m2
02:16 45.7 °F 43.5 °F 29.7 in WNW 2.9 mph 6 mph 92% 0 in 0 W/m2
02:21 45.7 °F 43.5 °F 29.7 in West 2 mph 9 mph 92% 0 in 0 W/m2
02:26 45.7 °F 43.2 °F 29.7 in WNW 2.9 mph 4 mph 91% 0 in 0 W/m2
02:31 45.7 °F 43.2 °F 29.7 in WNW 2.9 mph 8 mph 91% 0 in 0 W/m2
02:36 45.7 °F 43.2 °F 29.7 in West 2 mph 4 mph 91% 0 in 0 W/m2
02:41 45.5 °F 43 °F 29.7 in SW 2.9 mph 4 mph 91% 0 in 0 W/m2
02:46 45.3 °F 42.8 °F 29.7 in WNW 0.9 mph 4 mph 91% 0 in 0 W/m2
02:51 45.3 °F 42.8 °F 29.8 in West 0.9 mph 3 mph 91% 0 in 0 W/m2
02:56 45.1 °F 42.6 °F 29.8 in WNW 0.9 mph 2 mph 91% 0 in 0 W/m2
03:01 45 °F 42.4 °F 29.8 in SSW 2 mph 6 mph 91% 0 in 0 W/m2
03:06 44.8 °F 42.3 °F 29.8 in WSW 0.9 mph 7 mph 91% 0 in 0 W/m2
03:11 44.8 °F 42.3 °F 29.8 in WNW 0.9 mph 2 mph 91% 0 in 0 W/m2
03:16 44.4 °F 41.9 °F 29.8 in SW 2.9 mph 7 mph 91% 0 in 0 W/m2
03:21 44.4 °F 42.3 °F 29.8 in SW 2 mph 4 mph 92% 0 in 0 W/m2
03:27 44.2 °F 42.1 °F 29.8 in ESE 0.9 mph 7 mph 92% 0 in 0 W/m2
03:32 44.2 °F 41.7 °F 29.8 in WNW 2 mph 4 mph 91% 0 in 0 W/m2
03:37 44.1 °F 41.5 °F 29.8 in SSW 0.9 mph 4 mph 91% 0 in 0 W/m2
03:42 44.1 °F 41.5 °F 29.8 in WSW 4.9 mph 6 mph 91% 0 in 0 W/m2
03:47 44.1 °F 41.5 °F 29.8 in WSW 4 mph 5 mph 91% 0 in 0 W/m2
03:52 44.2 °F 41.7 °F 29.8 in WSW 4 mph 5 mph 91% 0 in 0 W/m2
03:57 44.2 °F 41.7 °F 29.8 in South 2.9 mph 8 mph 91% 0 in 0 W/m2
04:02 44.2 °F 41.5 °F 29.8 in WSW 4.9 mph 5 mph 90% 0 in 0 W/m2
04:07 44.1 °F 41.4 °F 29.8 in West 4 mph 6 mph 90% 0 in 0 W/m2
04:12 44.1 °F 41.4 °F 29.8 in West 4 mph 4 mph 90% 0 in 0 W/m2
04:17 44.1 °F 41.4 °F 29.8 in WSW 4 mph 4 mph 90% 0 in 0 W/m2
04:22 43.9 °F 41.2 °F 29.8 in West 2.9 mph 3 mph 90% 0 in 0 W/m2
04:27 43.7 °F 41 °F 29.8 in WNW 2.9 mph 5 mph 90% 0 in 0 W/m2
04:32 43.7 °F 41 °F 29.8 in West 2 mph 3 mph 90% 0 in 0 W/m2
04:37 43.5 °F 40.8 °F 29.8 in WSW 2 mph 4 mph 90% 0 in 0 W/m2
04:42 43.5 °F 40.8 °F 29.8 in West 0.9 mph 2 mph 90% 0 in 0 W/m2
04:47 43.3 °F 40.6 °F 29.8 in Calm   2 mph 90% 0 in 0 W/m2
04:52 43.2 °F 40.5 °F 29.8 in SW 2.9 mph 9 mph 90% 0 in 0 W/m2
04:58 43 °F 40.3 °F 29.8 in West 0.9 mph 3 mph 90% 0 in 0 W/m2
05:03 43 °F 40.5 °F 29.8 in SSW 0.9 mph 3 mph 91% 0.01 in 0 W/m2
05:08 42.8 °F 40.3 °F 29.8 in NW 2 mph 3 mph 91% 0.01 in 0 W/m2
05:13 42.6 °F 40.1 °F 29.8 in West 2.9 mph 4 mph 91% 0.01 in 0 W/m2
05:18 42.6 °F 40.1 °F 29.8 in WSW 2 mph 2 mph 91% 0.01 in 0 W/m2
05:23 42.4 °F 39.9 °F 29.8 in SW 0.9 mph 4 mph 91% 0.01 in 0 W/m2
05:28 42.4 °F 39.9 °F 29.8 in Calm   3 mph 91% 0.01 in 0 W/m2
05:33 42.6 °F 40.5 °F 29.8 in Calm   2 mph 92% 0.01 in 0 W/m2
05:38 42.6 °F 40.5 °F 29.8 in WSW 2.9 mph 7 mph 92% 0.01 in 0 W/m2
05:43 43 °F 40.8 °F 29.8 in WSW 0.9 mph 2 mph 92% 0.01 in 0 W/m2
05:48 43 °F 40.8 °F 29.8 in West 0.9 mph 3 mph 92% 0.01 in 0 W/m2
05:53 43.2 °F 40.6 °F 29.8 in West 0.9 mph 2 mph 91% 0.01 in 0 W/m2
05:58 43.2 °F 40.6 °F 29.8 in WSW 0.9 mph 2 mph 91% 0.01 in 0 W/m2
06:03 43.2 °F 40.6 °F 29.8 in Calm   1 mph 91% 0 in 0 W/m2
06:08 43.2 °F 40.6 °F 29.8 in WNW 0.9 mph 1 mph 91% 0 in 0 W/m2
06:13 43.2 °F 40.6 °F 29.8 in WNW 2 mph 2 mph 91% 0 in 0 W/m2
06:18 43.2 °F 40.6 °F 29.8 in West 0.9 mph 1 mph 91% 0 in 5 W/m2
06:23 43.2 °F 40.6 °F 29.8 in NNW 0.9 mph 1 mph 91% 0 in 7 W/m2
06:28 43.2 °F 40.6 °F 29.8 in Calm   1 mph 91% 0 in 9 W/m2
06:33 43.2 °F 41 °F 29.8 in NNW 0.9 mph 2 mph 92% 0 in 21 W/m2
06:38 43.2 °F 41 °F 29.8 in SW 0.9 mph 7 mph 92% 0 in 39 W/m2
06:43 43.2 °F 41 °F 29.8 in SSW 0.9 mph 3 mph 92% 0 in 23 W/m2
06:48 43.2 °F 41 °F 29.8 in WSW 2 mph 4 mph 92% 0 in 26 W/m2
06:54 43.2 °F 41 °F 29.8 in SSW 0.9 mph 3 mph 92% 0 in 21 W/m2
06:59 43.2 °F 41 °F 29.8 in Calm   1 mph 92% 0 in 19 W/m2
07:04 43.2 °F 41 °F 29.8 in WNW 2.9 mph 3 mph 92% 0 in 35 W/m2
07:09 43.2 °F 41 °F 29.8 in West 0.9 mph 3 mph 92% 0 in 33 W/m2
07:14 43.2 °F 41 °F 29.8 in SSW 0.9 mph 5 mph 92% 0 in 35 W/m2
07:19 43.2 °F 41 °F 29.8 in West 0.9 mph 2 mph 92% 0 in 49 W/m2
07:24 43.2 °F 41 °F 29.8 in West 0.9 mph 3 mph 92% 0 in 91 W/m2
07:29 43.3 °F 41.2 °F 29.8 in WNW 2 mph 2 mph 92% 0 in 51 W/m2
07:34 43.3 °F 41.2 °F 29.8 in WNW 2 mph 8 mph 92% 0 in 93 W/m2
07:39 43.3 °F 41.2 °F 29.8 in WNW 0.9 mph 1 mph 92% 0 in 132 W/m2
07:44 43.7 °F 41.5 °F 29.8 in Calm   5 mph 92% 0 in 67 W/m2
07:49 43.9 °F 41.7 °F 29.8 in WSW 0.9 mph 1 mph 92% 0 in 81 W/m2
07:54 44.1 °F 41.5 °F 29.8 in West 4 mph 7 mph 91% 0 in 72 W/m2
07:59 44.2 °F 41.7 °F 29.8 in SE 0.9 mph 3 mph 91% 0 in 120 W/m2
08:04 44.4 °F 41.9 °F 29.8 in WNW 7 mph 7 mph 91% 0 in 105 W/m2
08:09 44.8 °F 42.3 °F 29.8 in SW 2.9 mph 4 mph 91% 0 in 294 W/m2
08:14 45.3 °F 42.8 °F 29.8 in WNW 2 mph 10 mph 91% 0 in 325 W/m2
08:19 45.7 °F 43 °F 29.8 in West 6 mph 6 mph 90% 0 in 174 W/m2
08:24 45.9 °F 42.8 °F 29.8 in West 4 mph 13 mph 89% 0 in 97 W/m2
08:29 45.9 °F 42.8 °F 29.8 in WNW 2.9 mph 8 mph 89% 0 in 179 W/m2
08:34 45.9 °F 42.8 °F 29.8 in SW 2 mph 13 mph 89% 0 in 113 W/m2
08:39 45.9 °F 42.8 °F 29.8 in West 2 mph 4 mph 89% 0 in 109 W/m2
08:44 45.9 °F 42.4 °F 29.8 in West 2 mph 3 mph 88% 0 in 121 W/m2
08:49 46 °F 43 °F 29.8 in Calm   3 mph 89% 0 in 353 W/m2
08:55 46 °F 43 °F 29.8 in NW 2 mph 4 mph 89% 0 in 376 W/m2
09:00 46.6 °F 43.5 °F 29.8 in Calm   2 mph 89% 0 in 434 W/m2
09:05 47.1 °F 44.1 °F 29.8 in West 2 mph 8 mph 89% 0 in 410 W/m2
09:10 47.5 °F 44.1 °F 29.8 in West 2 mph 5 mph 88% 0 in 466 W/m2
09:15 47.8 °F 44.4 °F 29.8 in WSW 4 mph 5 mph 88% 0 in 489 W/m2
09:20 48 °F 44.1 °F 29.8 in NW 8.1 mph 11 mph 86% 0 in 325 W/m2
09:25 48 °F 44.1 °F 29.8 in WNW 2.9 mph 6 mph 86% 0 in 322 W/m2
09:30 47.8 °F 43.9 °F 29.8 in WSW 2.9 mph 6 mph 86% 0 in 278 W/m2
09:35 48.2 °F 44.6 °F 29.8 in West 6 mph 8 mph 87% 0 in 230 W/m2
09:40 48.2 °F 44.2 °F 29.8 in West 2.9 mph 9 mph 86% 0 in 190 W/m2
09:45 48 °F 44.1 °F 29.8 in WNW 2 mph 6 mph 86% 0 in 207 W/m2
09:50 48 °F 44.4 °F 29.8 in West 0.9 mph 2 mph 87% 0 in 244 W/m2
09:55 48.6 °F 44.6 °F 29.8 in NW 4 mph 8 mph 86% 0 in 301 W/m2
10:00 48.9 °F 44.6 °F 29.8 in West 4 mph 6 mph 85% 0 in 295 W/m2
10:05 49.6 °F 45.3 °F 29.8 in WNW 4 mph 5 mph 85% 0 in 346 W/m2
10:11 50 °F 45.3 °F 29.8 in NW 2.9 mph 7 mph 84% 0 in 330 W/m2
10:16 50.2 °F 45 °F 29.8 in West 6 mph 15 mph 82% 0 in 675 W/m2
10:21 50.5 °F 45.5 °F 29.8 in NW 2.9 mph 9 mph 83% 0 in 777 W/m2
10:26 51.1 °F 45.5 °F 29.8 in WNW 2.9 mph 15 mph 81% 0 in 687 W/m2
10:31 51.3 °F 45 °F 29.8 in WNW 2.9 mph 7 mph 79% 0 in 271 W/m2
10:36 51.3 °F 45 °F 29.8 in NW 2 mph 9 mph 79% 0 in 199 W/m2
10:41 51.3 °F 44.6 °F 29.8 in WNW 8.9 mph 10 mph 78% 0 in 294 W/m2
10:46 51.3 °F 44.2 °F 29.8 in NW 8.1 mph 8 mph 77% 0 in 123 W/m2
10:51 50.7 °F 43.7 °F 29.8 in WSW 6 mph 9 mph 77% 0 in 118 W/m2
10:56 50.5 °F 44.2 °F 29.8 in WNW 2 mph 8 mph 79% 0 in 144 W/m2
11:01 50.7 °F 44.1 °F 29.8 in West 2.9 mph 8 mph 78% 0 in 105 W/m2
11:06 51.1 °F 44.4 °F 29.8 in West 2.9 mph 7 mph 78% 0 in 190 W/m2
11:11 51.3 °F 44.6 °F 29.8 in West 8.1 mph 8 mph 78% 0 in 237 W/m2
11:16 51.4 °F 44.1 °F 29.8 in ESE 2.9 mph 6 mph 76% 0 in 318 W/m2
11:21 51.8 °F 43.7 °F 29.8 in WNW 6.9 mph 13 mph 74% 0 in 838 W/m2
11:26 52.5 °F 44.1 °F 29.8 in South 4 mph 8 mph 73% 0 in 884 W/m2
11:31 52.9 °F 43.3 °F 29.8 in WSW 6.9 mph 7 mph 70% 0 in 798 W/m2
11:36 53.4 °F 43.9 °F 29.8 in WNW 4 mph 6 mph 70% 0 in 844 W/m2
11:41 53.8 °F 43.5 °F 29.8 in WNW 2.9 mph 13 mph 68% 0 in 831 W/m2
11:46 53.8 °F 42.6 °F 29.8 in West 6 mph 15 mph 66% 0 in 816 W/m2
11:51 54 °F 42.1 °F 29.8 in West 6.9 mph 10 mph 64% 0 in 809 W/m2
11:56 54.5 °F 42.1 °F 29.8 in West 13 mph 15 mph 63% 0 in 830 W/m2
12:01 54.7 °F 41.5 °F 29.8 in WSW 8.1 mph 16 mph 61% 0 in 911 W/m2
12:06 55 °F 42.3 °F 29.8 in WNW 4 mph 11 mph 62% 0 in 939 W/m2
12:11 55 °F 42.3 °F 29.8 in NW 2 mph 15 mph 62% 0 in 267 W/m2
12:16 55 °F 42.6 °F 29.8 in NW 8.1 mph 12 mph 63% 0 in 912 W/m2
12:22 55.2 °F 42.4 °F 29.8 in WSW 4.9 mph 15 mph 62% 0 in 396 W/m2
12:27 55.2 °F 43.3 °F 29.8 in West 4 mph 10 mph 64% 0 in 271 W/m2
12:32 55.4 °F 41.7 °F 29.8 in NW 6 mph 14 mph 60% 0 in 346 W/m2
12:37 55 °F 41.9 °F 29.8 in West 4 mph 9 mph 61% 0 in 921 W/m2
12:42 55 °F 41.9 °F 29.8 in SW 4.9 mph 10 mph 61% 0 in 327 W/m2
12:47 55.6 °F 43.2 °F 29.8 in NW 14.1 mph 14 mph 63% 0 in 911 W/m2
12:52 55.6 °F 42.8 °F 29.8 in NW 6.9 mph 11 mph 62% 0 in 851 W/m2
12:57 55.8 °F 43 °F 29.8 in NW 19 mph 19 mph 62% 0 in 914 W/m2
13:03 55.8 °F 42.4 °F 29.8 in NW 10.1 mph 16 mph 61% 0 in 278 W/m2
13:08 55.8 °F 42.4 °F 29.8 in WNW 10.1 mph 14 mph 61% 0 in 403 W/m2
13:13 56.1 °F 42.8 °F 29.8 in NNW 6 mph 11 mph 61% 0 in 279 W/m2
13:18 56.5 °F 42.8 °F 29.8 in NW 4.9 mph 8 mph 60% 0 in 186 W/m2
13:23 55.9 °F 41.9 °F 29.8 in WNW 6.9 mph 19 mph 59% 0 in 257 W/m2
13:28 55.6 °F 41.9 °F 29.8 in SW 4 mph 11 mph 60% 0 in 900 W/m2
13:33 55.9 °F 42.6 °F 29.8 in WNW 4.9 mph 19 mph 61% 0 in 1020 W/m2
13:38 56.3 °F 43 °F 29.8 in WSW 8.9 mph 12 mph 61% 0 in 962 W/m2
13:43 56.3 °F 42.6 °F 29.8 in WSW 4.9 mph 11 mph 60% 0 in 432 W/m2
13:48 55.9 °F 42.3 °F 29.8 in NW 4.9 mph 16 mph 60% 0 in 527 W/m2
13:53 55 °F 43.2 °F 29.9 in WSW 13 mph 15 mph 64% 0 in 109 W/m2
13:58 52.5 °F 42.3 °F 29.9 in WSW 4.9 mph 12 mph 68% 0 in 160 W/m2
14:03 51.3 °F 43.3 °F 29.9 in WNW 11 mph 15 mph 74% 0 in 882 W/m2
14:08 51.4 °F 42.8 °F 29.9 in West 12.1 mph 17 mph 72% 0 in 823 W/m2
14:13 52 °F 42.8 °F 29.9 in WNW 8.1 mph 19 mph 71% 0 in 1011 W/m2
14:18 52 °F 42.1 °F 29.9 in NNW 11 mph 15 mph 69% 0 in 318 W/m2
14:23 52.3 °F 42.8 °F 29.9 in West 11 mph 19 mph 70% 0 in 1090 W/m2
14:28 53.2 °F 43.3 °F 29.9 in North 6 mph 10 mph 69% 0 in 367 W/m2
14:33 53.2 °F 42.3 °F 29.9 in WSW 10.1 mph 14 mph 66% 0 in 292 W/m2
14:38 53.1 °F 42.4 °F 29.9 in WNW 8.9 mph 15 mph 67% 0 in 376 W/m2
14:43 53.2 °F 42.6 °F 29.9 in WSW 10.1 mph 13 mph 67% 0 in 874 W/m2
14:48 53.6 °F 43 °F 29.9 in NW 11 mph 13 mph 67% 0 in 374 W/m2
14:53 53.6 °F 42.4 °F 29.9 in WNW 10.1 mph 15 mph 66% 0 in 636 W/m2
14:58 53.1 °F 42.1 °F 29.9 in North 12.1 mph 19 mph 66% 0 in 330 W/m2
15:03 52.2 °F 41.9 °F 29.9 in West 11 mph 15 mph 68% 0 in 262 W/m2
15:08 51.4 °F 42.4 °F 29.9 in WSW 10.1 mph 12 mph 71% 0 in 232 W/m2
15:13 50.7 °F 42.4 °F 29.9 in WSW 6.9 mph 10 mph 73% 0 in 260 W/m2
15:18 50.5 °F 42.3 °F 29.9 in WNW 4 mph 10 mph 73% 0 in 253 W/m2
15:23 50.7 °F 42.8 °F 29.9 in NW 6.9 mph 10 mph 74% 0 in 432 W/m2
15:28 51.3 °F 43 °F 29.9 in WSW 8.1 mph 15 mph 73% 0 in 301 W/m2
15:33 51.4 °F 42.4 °F 29.9 in WNW 4.9 mph 9 mph 71% 0 in 671 W/m2
15:38 52.3 °F 42.8 °F 29.9 in NW 12.1 mph 15 mph 70% 0 in 731 W/m2
15:43 52.7 °F 42.1 °F 29.9 in WSW 12.1 mph 15 mph 67% 0 in 693 W/m2
15:48 53.2 °F 41.7 °F 29.9 in West 13 mph 13 mph 65% 0 in 680 W/m2
15:53 54 °F 42.4 °F 29.9 in WNW 4.9 mph 15 mph 65% 0 in 675 W/m2
15:58 54.7 °F 42.8 °F 29.9 in WNW 6.9 mph 11 mph 64% 0 in 668 W/m2
16:03 55 °F 42.6 °F 29.9 in WSW 8.1 mph 12 mph 63% 0 in 661 W/m2
16:08 55.4 °F 42.6 °F 29.9 in NW 4.9 mph 8 mph 62% 0 in 650 W/m2
16:13 55.8 °F 41.7 °F 29.9 in WNW 12.1 mph 12 mph 59% 0 in 643 W/m2
16:18 55.8 °F 42.1 °F 29.9 in West 2.9 mph 12 mph 60% 0 in 636 W/m2
16:23 56.3 °F 41.7 °F 29.9 in West 2.9 mph 15 mph 58% 0 in 654 W/m2
16:28 56.1 °F 41.5 °F 29.9 in West 10.1 mph 12 mph 58% 0 in 698 W/m2
16:33 55.9 °F 39.6 °F 29.9 in WNW 10.1 mph 17 mph 54% 0 in 666 W/m2
16:38 55.9 °F 40.5 °F 29.9 in WNW 10.1 mph 16 mph 56% 0 in 640 W/m2
16:43 56.1 °F 41.2 °F 29.9 in West 8.1 mph 17 mph 57% 0 in 638 W/m2
16:48 56.7 °F 42.1 °F 29.9 in West 4 mph 8 mph 58% 0 in 629 W/m2
16:53 57.2 °F 41.7 °F 29.9 in West 4 mph 12 mph 56% 0 in 585 W/m2
16:58 57 °F 41.5 °F 29.9 in WNW 8.1 mph 18 mph 56% 0 in 490 W/m2
17:03 56.7 °F 40.6 °F 29.9 in West 8.1 mph 12 mph 55% 0 in 580 W/m2
17:08 57.2 °F 41.7 °F 29.9 in WNW 8.1 mph 18 mph 56% 0 in 598 W/m2
17:13 57.4 °F 40.8 °F 29.9 in NW 4 mph 14 mph 54% 0 in 575 W/m2
17:18 57 °F 41.5 °F 29.9 in NW 8.9 mph 11 mph 56% 0 in 197 W/m2
17:23 56.5 °F 41.4 °F 29.9 in WSW 8.1 mph 14 mph 57% 0 in 207 W/m2
17:28 56.5 °F 42.3 °F 29.9 in West 6.9 mph 10 mph 59% 0 in 160 W/m2
17:33 55.4 °F 42.6 °F 29.9 in West 8.1 mph 13 mph 62% 0 in 193 W/m2
17:38 55.2 °F 43.7 °F 29.9 in NNE 6.9 mph 7 mph 65% 0 in 570 W/m2
17:43 55.4 °F 43.9 °F 29.9 in WNW 8.9 mph 10 mph 65% 0 in 592 W/m2
17:48 55.6 °F 43.5 °F 29.9 in NNW 6 mph 8 mph 64% 0 in 478 W/m2
17:53 56.1 °F 44.1 °F 29.9 in WNW 2 mph 6 mph 64% 0 in 434 W/m2
17:58 56.7 °F 44.2 °F 29.9 in WNW 4.9 mph 8 mph 63% 0 in 475 W/m2
18:03 56.5 °F 43.7 °F 29.9 in NW 0.9 mph 7 mph 62% 0 in 243 W/m2
18:08 56.1 °F 43.3 °F 29.9 in WNW 2.9 mph 9 mph 62% 0 in 439 W/m2
18:13 56.1 °F 43.7 °F 29.9 in NNW 4.9 mph 5 mph 63% 0 in 360 W/m2
18:18 56.5 °F 43.7 °F 29.9 in West 4 mph 9 mph 62% 0 in 338 W/m2
18:23 56.1 °F 43.3 °F 29.9 in WSW 6.9 mph 9 mph 62% 0 in 329 W/m2
18:28 56.1 °F 43.7 °F 29.9 in WNW 2.9 mph 4 mph 63% 0 in 315 W/m2
18:33 56.5 °F 44.1 °F 29.9 in North 4 mph 6 mph 63% 0 in 309 W/m2
18:38 56.7 °F 43.7 °F 29.9 in WSW 6.9 mph 8 mph 62% 0 in 295 W/m2
18:43 56.5 °F 43.7 °F 29.9 in West 8.1 mph 8 mph 62% 0 in 271 W/m2
18:48 56.3 °F 43 °F 29.9 in West 2.9 mph 10 mph 61% 0 in 260 W/m2
18:53 56.7 °F 43 °F 29.9 in WNW 4.9 mph 6 mph 60% 0 in 248 W/m2
18:58 56.7 °F 42.4 °F 29.9 in NW 4.9 mph 8 mph 59% 0 in 232 W/m2
19:03 56.5 °F 42.8 °F 29.9 in NW 2.9 mph 8 mph 60% 0 in 218 W/m2
19:08 56.7 °F 43 °F 29.9 in WNW 4 mph 7 mph 60% 0 in 204 W/m2
19:13 56.7 °F 43 °F 29.9 in West 2 mph 4 mph 60% 0 in 188 W/m2
19:18 56.7 °F 43 °F 29.9 in NNW 2 mph 8 mph 60% 0 in 171 W/m2
19:23 56.8 °F 43.5 °F 29.9 in WNW 2 mph 3 mph 61% 0 in 158 W/m2
19:28 56.8 °F 43.5 °F 29.9 in West 4 mph 7 mph 61% 0 in 146 W/m2
19:33 56.5 °F 43.7 °F 29.9 in WNW 2.9 mph 4 mph 62% 0 in 128 W/m2
19:38 56.5 °F 43.7 °F 29.9 in WSW 4 mph 4 mph 62% 0 in 111 W/m2
19:43 56.5 °F 44.1 °F 29.9 in WSW 2 mph 3 mph 63% 0 in 100 W/m2
19:49 56.5 °F 43.7 °F 29.9 in NW 2 mph 3 mph 62% 0 in 86 W/m2
19:54 56.3 °F 43.9 °F 29.9 in West 2 mph 4 mph 63% 0 in 74 W/m2
19:59 56.1 °F 44.1 °F 29.9 in West 0.9 mph 3 mph 64% 0 in 63 W/m2
20:04 56.1 °F 44.6 °F 29.9 in Calm   4 mph 65% 0 in 53 W/m2
20:09 55.9 °F 44.4 °F 29.9 in West 0.9 mph 4 mph 65% 0 in 37 W/m2
20:14 55.8 °F 44.6 °F 29.9 in Calm   2 mph 66% 0 in 19 W/m2
20:19 55.2 °F 44.4 °F 29.9 in West 0.9 mph 4 mph 67% 0 in 18 W/m2
20:24 54.7 °F 44.8 °F 29.9 in West 0.9 mph 2 mph 69% 0 in 14 W/m2
20:29 54.1 °F 44.6 °F 29.9 in West 2 mph 2 mph 70% 0 in 14 W/m2
20:34 53.4 °F 44.6 °F 29.9 in West 0.9 mph 2 mph 72% 0 in 11 W/m2
20:39 52.9 °F 44.4 °F 29.9 in West 2 mph 2 mph 73% 0 in 11 W/m2
20:44 52.3 °F 44.2 °F 29.9 in West 0.9 mph 1 mph 74% 0 in 9 W/m2
20:49 51.8 °F 44.4 °F 29.9 in West 0.9 mph 1 mph 76% 0 in 5 W/m2
20:54 51.3 °F 44.2 °F 29.9 in West 0.9 mph 1 mph 77% 0 in 5 W/m2
20:59 50.9 °F 44.2 °F 29.9 in Calm   1 mph 78% 0 in 0 W/m2
21:04 50.4 °F 44.1 °F 29.9 in Calm   2 mph 79% 0 in 0 W/m2
21:09 50 °F 44.1 °F 29.9 in West 0.9 mph 1 mph 80% 0 in 0 W/m2
21:14 49.6 °F 44.1 °F 29.9 in West 0.9 mph 2 mph 81% 0 in 0 W/m2
21:19 49.5 °F 44.2 °F 29.9 in Calm   1 mph 82% 0 in 0 W/m2
21:24 49.3 °F 44.1 °F 29.9 in West 0.9 mph 2 mph 82% 0 in 0 W/m2
21:29 48.9 °F 44.1 °F 29.9 in Calm   1 mph 83% 0 in 0 W/m2
21:34 48.7 °F 43.9 °F 29.9 in Calm     83% 0 in 0 W/m2
21:39 48.6 °F 43.7 °F 29.9 in Calm   1 mph 83% 0 in 0 W/m2
21:44 48.2 °F 43.3 °F 30 in Calm     83% 0 in 0 W/m2
21:49 47.8 °F 43.2 °F 30 in Calm     84% 0 in 0 W/m2
21:54 47.7 °F 43 °F 30 in Calm     84% 0 in 0 W/m2
21:59 47.3 °F 43 °F 30 in Calm     85% 0 in 0 W/m2
22:04 46.9 °F 42.6 °F 30 in Calm     85% 0 in 0 W/m2
22:09 46.8 °F 42.8 °F 30 in Calm     86% 0 in 0 W/m2
22:14 46.6 °F 42.6 °F 30 in Calm     86% 0 in 0 W/m2
22:19 46.2 °F 42.3 °F 30 in Calm     86% 0 in 0 W/m2
22:25 46 °F 42.4 °F 30 in Calm     87% 0 in 0 W/m2
22:30 45.9 °F 42.3 °F 30 in Calm     87% 0 in 0 W/m2
22:35 45.5 °F 42.1 °F 30 in Calm     88% 0 in 0 W/m2
22:40 45.3 °F 41.9 °F 30 in Calm     88% 0 in 0 W/m2
22:45 45.1 °F 42.1 °F 30 in Calm     89% 0 in 0 W/m2
22:50 45.1 °F 42.1 °F 30 in Calm     89% 0 in 0 W/m2
22:55 45 °F 41.9 °F 30 in Calm     89% 0 in 0 W/m2
23:00 44.8 °F 41.7 °F 30 in Calm     89% 0 in 0 W/m2
23:05 44.4 °F 41.4 °F 30 in Calm     89% 0 in 0 W/m2
23:10 44.2 °F 41.5 °F 30 in Calm     90% 0 in 0 W/m2
23:15 44.2 °F 41.5 °F 30 in Calm     90% 0 in 0 W/m2
23:20 44.2 °F 41.5 °F 30 in Calm     90% 0 in 0 W/m2
23:25 44.1 °F 41.5 °F 30 in Calm     91% 0 in 0 W/m2
23:30 43.9 °F 41.4 °F 30 in Calm     91% 0 in 0 W/m2
23:35 43.9 °F 41.4 °F 30 in Calm     91% 0 in 0 W/m2
23:40 43.7 °F 41.2 °F 30 in Calm     91% 0 in 0 W/m2
23:45 43.5 °F 41 °F 30 in Calm     91% 0 in 0 W/m2
23:50 43.5 °F 41.4 °F 30 in Calm     92% 0 in 0 W/m2
23:55 43.5 °F 41.4 °F 30 in Calm     92% 0 in 0 W/m2
Juneau County Weather
Compliments of Weather Underground - 4 mb